createdAt,value
2022-11-25T00:00:03.393Z,998.73
2022-11-25T00:01:03.436Z,998.69
2022-11-25T00:02:03.448Z,998.69
2022-11-25T00:03:03.470Z,998.70
2022-11-25T00:04:03.367Z,998.68
2022-11-25T00:05:03.432Z,998.70
2022-11-25T00:06:03.348Z,998.71
2022-11-25T00:07:03.334Z,998.68
2022-11-25T00:08:03.369Z,998.69
2022-11-25T00:09:03.379Z,998.67
2022-11-25T00:10:03.325Z,998.66
2022-11-25T00:11:03.297Z,998.68
2022-11-25T00:12:03.329Z,998.64
2022-11-25T00:13:03.304Z,998.61
2022-11-25T00:14:03.450Z,998.62
2022-11-25T00:15:03.276Z,998.59
2022-11-25T00:16:04.125Z,998.64
2022-11-25T00:17:03.347Z,998.63
2022-11-25T00:18:03.271Z,998.71
2022-11-25T00:19:04.263Z,998.66
2022-11-25T00:20:03.196Z,998.66
2022-11-25T00:21:03.188Z,998.64
2022-11-25T00:22:03.291Z,998.66
2022-11-25T00:23:35.058Z,998.66
2022-11-25T00:24:03.260Z,998.63
2022-11-25T00:25:03.203Z,998.65
2022-11-25T00:26:03.165Z,998.56
2022-11-25T00:27:03.127Z,998.60
2022-11-25T00:28:03.147Z,998.59
2022-11-25T00:29:03.129Z,998.58
2022-11-25T00:30:03.097Z,998.59
2022-11-25T00:31:03.097Z,998.62
2022-11-25T00:32:03.201Z,998.60
2022-11-25T00:33:03.096Z,998.63
2022-11-25T00:34:03.107Z,998.62
2022-11-25T00:35:03.055Z,998.60
2022-11-25T00:36:03.166Z,998.60
2022-11-25T00:37:03.081Z,998.62
2022-11-25T00:38:03.034Z,998.58
2022-11-25T00:39:03.013Z,998.55
2022-11-25T00:40:03.036Z,998.54
2022-11-25T00:41:03.048Z,998.51
2022-11-25T00:42:03.069Z,998.53
2022-11-25T00:43:03.021Z,998.50
2022-11-25T00:44:02.996Z,998.49
2022-11-25T00:45:03.024Z,998.56
2022-11-25T00:46:03.085Z,998.53
2022-11-25T00:47:02.984Z,998.55
2022-11-25T00:48:02.955Z,998.55
2022-11-25T00:49:02.941Z,998.55
2022-11-25T00:50:03.084Z,998.57
2022-11-25T00:51:02.956Z,998.60
2022-11-25T00:52:02.995Z,998.64
2022-11-25T00:53:02.962Z,998.63
2022-11-25T00:54:02.918Z,998.61
2022-11-25T00:55:02.912Z,998.57
2022-11-25T00:56:02.913Z,998.65
2022-11-25T00:57:02.890Z,998.64
2022-11-25T00:58:02.895Z,998.66
2022-11-25T00:59:02.894Z,998.65
2022-11-25T01:00:02.897Z,998.67
2022-11-25T01:01:02.962Z,998.60
2022-11-25T01:02:02.951Z,998.63
2022-11-25T01:03:34.763Z,998.59
2022-11-25T01:04:02.857Z,998.59
2022-11-25T01:05:03.893Z,998.62
2022-11-25T01:06:02.816Z,998.53
2022-11-25T01:07:02.795Z,998.64
2022-11-25T01:08:02.791Z,998.63
2022-11-25T01:09:02.910Z,998.68
2022-11-25T01:10:02.809Z,998.66
2022-11-25T01:11:02.817Z,998.70
2022-11-25T01:12:02.777Z,998.64
2022-11-25T01:13:02.759Z,998.66
2022-11-25T01:14:02.766Z,998.66
2022-11-25T01:15:02.763Z,998.72
2022-11-25T01:16:02.814Z,998.71
2022-11-25T01:17:02.737Z,998.73
2022-11-25T01:18:02.746Z,998.73
2022-11-25T01:19:02.792Z,998.74
2022-11-25T01:20:02.728Z,998.76
2022-11-25T01:21:02.727Z,998.76
2022-11-25T01:22:02.723Z,998.70
2022-11-25T01:23:02.698Z,998.75
2022-11-25T01:24:02.772Z,998.71
2022-11-25T01:25:02.699Z,998.72
2022-11-25T01:26:02.651Z,998.74
2022-11-25T01:27:02.668Z,998.74
2022-11-25T01:28:02.669Z,998.68
2022-11-25T01:29:02.640Z,998.76
2022-11-25T01:30:02.634Z,998.76
2022-11-25T01:31:02.611Z,998.72
2022-11-25T01:32:02.720Z,998.70
2022-11-25T01:33:02.602Z,998.74
2022-11-25T01:34:02.613Z,998.70
2022-11-25T01:35:02.592Z,998.64
2022-11-25T01:36:02.579Z,998.65
2022-11-25T01:37:02.589Z,998.70
2022-11-25T01:38:02.585Z,998.63
2022-11-25T01:39:02.603Z,998.66
2022-11-25T01:40:02.563Z,998.65
2022-11-25T01:41:02.554Z,998.75
2022-11-25T01:42:02.585Z,998.72
2022-11-25T01:43:02.560Z,998.60
2022-11-25T01:44:02.526Z,998.77
2022-11-25T01:45:02.546Z,998.66
2022-11-25T01:46:02.560Z,998.72
2022-11-25T01:47:02.496Z,998.74
2022-11-25T01:48:02.508Z,998.65
2022-11-25T01:49:02.495Z,998.64
2022-11-25T01:50:02.579Z,998.64
2022-11-25T01:51:02.465Z,998.62
2022-11-25T01:52:02.468Z,998.63
2022-11-25T01:53:02.473Z,998.57
2022-11-25T01:54:02.440Z,998.60
2022-11-25T01:55:02.435Z,998.58
2022-11-25T01:56:02.451Z,998.59
2022-11-25T01:57:02.501Z,998.53
2022-11-25T01:58:02.429Z,998.52
2022-11-25T01:59:02.458Z,998.56
2022-11-25T02:00:02.427Z,998.61
2022-11-25T02:01:02.418Z,998.59
2022-11-25T02:02:02.439Z,998.62
2022-11-25T02:03:02.386Z,998.56
2022-11-25T02:04:02.359Z,998.61
2022-11-25T02:05:02.384Z,998.63
2022-11-25T02:06:02.359Z,998.57
2022-11-25T02:07:02.330Z,998.60
2022-11-25T02:08:02.331Z,998.60
2022-11-25T02:09:02.360Z,998.56
2022-11-25T02:10:02.367Z,998.57
2022-11-25T02:11:02.337Z,998.55
2022-11-25T02:12:02.323Z,998.57
2022-11-25T02:13:02.282Z,998.57
2022-11-25T02:14:03.212Z,998.57
2022-11-25T02:15:02.270Z,998.56
2022-11-25T02:16:02.345Z,998.53
2022-11-25T02:17:02.364Z,998.54
2022-11-25T02:18:02.257Z,998.52
2022-11-25T02:19:02.280Z,998.55
2022-11-25T02:20:02.259Z,998.53
2022-11-25T02:21:02.262Z,998.50
2022-11-25T02:22:02.231Z,998.46
2022-11-25T02:23:02.239Z,998.42
2022-11-25T02:24:02.212Z,998.43
2022-11-25T02:25:02.199Z,998.44
2022-11-25T02:26:02.188Z,998.45
2022-11-25T02:27:02.214Z,998.40
2022-11-25T02:28:02.204Z,998.41
2022-11-25T02:29:02.168Z,998.45
2022-11-25T02:30:02.184Z,998.46
2022-11-25T02:31:02.183Z,998.48
2022-11-25T02:32:02.216Z,998.42
2022-11-25T02:33:02.139Z,998.45
2022-11-25T02:34:02.145Z,998.44
2022-11-25T02:35:02.116Z,998.45
2022-11-25T02:36:02.166Z,998.41
2022-11-25T02:37:02.111Z,998.44
2022-11-25T02:38:34.044Z,998.43
2022-11-25T02:39:02.105Z,998.37
2022-11-25T02:40:02.127Z,998.43
2022-11-25T02:41:02.070Z,998.38
2022-11-25T02:42:02.084Z,998.34
2022-11-25T02:43:02.066Z,998.40
2022-11-25T02:44:02.094Z,998.43
2022-11-25T02:45:02.076Z,998.44
2022-11-25T02:46:02.154Z,998.46
2022-11-25T02:47:02.060Z,998.37
2022-11-25T02:48:02.021Z,998.45
2022-11-25T02:49:10.226Z,998.42
2022-11-25T02:50:04.003Z,998.44
2022-11-25T02:51:02.023Z,998.38
2022-11-25T02:52:02.022Z,998.40
2022-11-25T02:53:01.994Z,998.38
2022-11-25T02:54:01.989Z,998.36
2022-11-25T02:55:02.003Z,998.34
2022-11-25T02:56:01.984Z,998.31
2022-11-25T02:57:01.939Z,998.34
2022-11-25T02:58:01.935Z,998.33
2022-11-25T02:59:01.955Z,998.36
2022-11-25T03:00:01.964Z,998.32
2022-11-25T03:01:01.972Z,998.23
2022-11-25T03:02:01.947Z,998.31
2022-11-25T03:03:01.914Z,998.33
2022-11-25T03:04:01.911Z,998.31
2022-11-25T03:05:01.942Z,998.34
2022-11-25T03:06:01.875Z,998.28
2022-11-25T03:07:01.914Z,998.24
2022-11-25T03:08:01.865Z,998.32
2022-11-25T03:09:01.885Z,998.37
2022-11-25T03:10:01.878Z,998.29
2022-11-25T03:11:01.839Z,998.29
2022-11-25T03:12:01.829Z,998.27
2022-11-25T03:13:01.831Z,998.31
2022-11-25T03:14:01.843Z,998.30
2022-11-25T03:15:01.805Z,998.32
2022-11-25T03:16:01.821Z,998.30
2022-11-25T03:17:01.836Z,998.32
2022-11-25T03:18:01.776Z,998.35
2022-11-25T03:19:01.765Z,998.29
2022-11-25T03:20:01.786Z,998.29
2022-11-25T03:21:01.763Z,998.34
2022-11-25T03:22:01.767Z,998.35
2022-11-25T03:23:01.818Z,998.39
2022-11-25T03:24:01.738Z,998.37
2022-11-25T03:25:01.757Z,998.32
2022-11-25T03:26:01.711Z,998.37
2022-11-25T03:27:01.731Z,998.36
2022-11-25T03:28:01.709Z,998.34
2022-11-25T03:29:01.711Z,998.36
2022-11-25T03:30:01.777Z,998.21
2022-11-25T03:31:01.678Z,998.23
2022-11-25T03:32:04.275Z,998.27
2022-11-25T03:33:03.674Z,998.27
2022-11-25T03:34:01.677Z,998.32
2022-11-25T03:35:01.675Z,998.31
2022-11-25T03:36:01.639Z,998.36
2022-11-25T03:37:01.686Z,998.38
2022-11-25T03:38:01.639Z,998.43
2022-11-25T03:39:01.651Z,998.41
2022-11-25T03:40:01.619Z,998.41
2022-11-25T03:41:01.615Z,998.41
2022-11-25T03:42:01.618Z,998.43
2022-11-25T03:43:01.636Z,998.43
2022-11-25T03:44:01.583Z,998.38
2022-11-25T03:45:01.586Z,998.41
2022-11-25T03:46:01.737Z,998.47
2022-11-25T03:47:01.578Z,998.40
2022-11-25T04:03:10.750Z,998.50
2022-11-25T04:04:10.748Z,998.42
2022-11-25T04:05:11.908Z,998.46
2022-11-25T04:06:43.766Z,998.46
2022-11-25T04:07:11.891Z,998.43
2022-11-25T04:08:44.817Z,998.43
2022-11-25T04:09:11.844Z,998.38
2022-11-25T04:10:11.831Z,998.36
2022-11-25T04:11:11.824Z,998.41
2022-11-25T04:12:11.814Z,998.35
2022-11-25T04:13:11.847Z,998.34
2022-11-25T04:14:11.813Z,998.28
2022-11-25T04:15:11.801Z,998.34
2022-11-25T04:16:11.809Z,998.27
2022-11-25T04:17:11.876Z,998.23
2022-11-25T04:18:11.804Z,998.26
2022-11-25T04:19:11.800Z,998.25
2022-11-25T04:20:11.772Z,998.25
2022-11-25T04:21:11.756Z,998.18
2022-11-25T04:22:11.760Z,998.16
2022-11-25T04:23:11.746Z,998.19
2022-11-25T04:24:11.757Z,998.29
2022-11-25T04:25:11.746Z,998.23
2022-11-25T04:26:11.723Z,998.24
2022-11-25T04:27:11.698Z,998.22
2022-11-25T04:28:12.398Z,998.21
2022-11-25T04:29:11.691Z,998.23
2022-11-25T04:30:11.695Z,998.20
2022-11-25T04:31:11.782Z,998.18
2022-11-25T04:32:11.655Z,998.20
2022-11-25T04:33:11.669Z,998.21
2022-11-25T04:34:11.644Z,998.22
2022-11-25T04:35:11.632Z,998.18
2022-11-25T04:36:11.651Z,998.17
2022-11-25T04:37:11.626Z,998.21
2022-11-25T04:38:11.721Z,998.18
2022-11-25T04:39:11.658Z,998.22
2022-11-25T04:40:11.603Z,998.24
2022-11-25T04:41:11.636Z,998.22
2022-11-25T04:42:11.619Z,998.25
2022-11-25T04:43:11.595Z,998.21
2022-11-25T04:44:11.601Z,998.22
2022-11-25T04:45:22.964Z,998.29
2022-11-25T04:46:14.592Z,998.24
2022-11-25T04:47:12.646Z,998.18
2022-11-25T04:48:11.695Z,998.21
2022-11-25T04:49:11.542Z,998.15
2022-11-25T04:50:11.551Z,998.20
2022-11-25T04:51:11.557Z,998.16
2022-11-25T04:52:11.514Z,998.14
2022-11-25T04:53:11.509Z,998.16
2022-11-25T04:54:17.183Z,998.17
2022-11-25T04:55:13.510Z,998.21
2022-11-25T04:56:11.518Z,998.22
2022-11-25T04:57:11.470Z,998.23
2022-11-25T04:58:11.659Z,998.30
2022-11-25T04:59:11.463Z,998.28
2022-11-25T05:00:11.438Z,998.33
2022-11-25T05:01:11.527Z,998.32
2022-11-25T05:02:11.546Z,998.29
2022-11-25T05:03:11.424Z,998.36
2022-11-25T05:04:11.415Z,998.36
2022-11-25T05:05:11.437Z,998.39
2022-11-25T05:06:11.415Z,998.42
2022-11-25T05:07:11.432Z,998.44
2022-11-25T05:08:11.526Z,998.41
2022-11-25T05:09:11.375Z,998.51
2022-11-25T05:10:11.414Z,998.52
2022-11-25T05:11:11.362Z,998.49
2022-11-25T05:12:11.346Z,998.54
2022-11-25T05:13:11.414Z,998.56
2022-11-25T05:14:11.369Z,998.55
2022-11-25T05:15:11.325Z,998.63
2022-11-25T05:16:11.428Z,998.58
2022-11-25T05:17:11.342Z,998.60
2022-11-25T05:18:11.600Z,998.63
2022-11-25T05:19:11.381Z,998.56
2022-11-25T05:20:11.304Z,998.54
2022-11-25T05:21:11.287Z,998.60
2022-11-25T05:22:11.301Z,998.59
2022-11-25T05:23:11.291Z,998.62
2022-11-25T05:24:11.280Z,998.50
2022-11-25T05:25:11.365Z,998.53
2022-11-25T05:26:11.256Z,998.54
2022-11-25T05:27:11.279Z,998.51
2022-11-25T05:28:11.239Z,998.44
2022-11-25T05:29:11.216Z,998.54
2022-11-25T05:30:11.215Z,998.46
2022-11-25T05:31:11.295Z,998.57
2022-11-25T05:32:11.262Z,998.49
2022-11-25T05:33:11.216Z,998.51
2022-11-25T05:34:11.204Z,998.47
2022-11-25T05:35:11.187Z,998.46
2022-11-25T05:36:11.208Z,998.40
2022-11-25T05:37:11.156Z,998.34
2022-11-25T05:38:11.178Z,998.36
2022-11-25T05:39:11.169Z,998.42
2022-11-25T05:40:11.141Z,998.41
2022-11-25T05:41:11.197Z,998.39
2022-11-25T05:42:11.131Z,998.35
2022-11-25T05:43:11.121Z,998.42
2022-11-25T05:44:11.123Z,998.46
2022-11-25T05:45:11.162Z,998.44
2022-11-25T05:46:11.149Z,998.46
2022-11-25T05:47:11.111Z,998.40
2022-11-25T05:48:11.083Z,998.41
2022-11-25T05:49:11.084Z,998.46
2022-11-25T05:50:11.113Z,998.43
2022-11-25T05:51:11.990Z,998.39
2022-11-25T05:52:43.013Z,998.38
2022-11-25T05:53:42.944Z,998.44
2022-11-25T05:54:43.059Z,998.35
2022-11-25T05:55:43.027Z,998.32
2022-11-25T05:56:43.073Z,998.35
2022-11-25T05:57:42.977Z,998.27
2022-11-25T05:58:11.122Z,998.33
2022-11-25T06:01:19.577Z,998.32
2022-11-25T06:02:26.701Z,998.34
2022-11-25T06:03:26.618Z,998.32
2022-11-25T06:04:52.651Z,998.32
2022-11-25T06:05:52.595Z,998.39
2022-11-25T06:06:52.618Z,998.35
2022-11-25T06:07:52.675Z,998.40
2022-11-25T06:08:20.664Z,998.43
2022-11-25T06:09:52.609Z,998.47
2022-11-25T06:10:20.643Z,998.45
2022-11-25T06:11:20.713Z,998.44
2022-11-25T06:12:20.633Z,998.36
2022-11-25T06:13:20.695Z,998.44
2022-11-25T06:14:20.614Z,998.39
2022-11-25T06:15:20.631Z,998.34
2022-11-25T06:16:20.626Z,998.42
2022-11-25T06:17:20.611Z,998.38
2022-11-25T06:18:20.626Z,998.41
2022-11-25T06:19:20.607Z,998.41
2022-11-25T06:20:20.566Z,998.43
2022-11-25T06:21:20.571Z,998.36
2022-11-25T06:22:20.561Z,998.40
2022-11-25T06:23:20.557Z,998.38
2022-11-25T06:24:20.549Z,998.40
2022-11-25T06:25:20.591Z,998.42
2022-11-25T06:26:20.516Z,998.42
2022-11-25T06:27:20.527Z,998.49
2022-11-25T06:28:20.505Z,998.45
2022-11-25T06:29:20.527Z,998.46
2022-11-25T06:30:20.594Z,998.45
2022-11-25T06:31:20.553Z,998.51
2022-11-25T06:32:20.493Z,998.53
2022-11-25T06:33:20.480Z,998.44
2022-11-25T06:34:20.471Z,998.46
2022-11-25T06:35:20.478Z,998.49
2022-11-25T06:36:20.474Z,998.52
2022-11-25T06:37:20.448Z,998.43
2022-11-25T06:38:20.434Z,998.50
2022-11-25T06:39:20.437Z,998.52
2022-11-25T06:40:20.471Z,998.49
2022-11-25T06:41:20.476Z,998.47
2022-11-25T06:42:20.507Z,998.45
2022-11-25T06:43:20.391Z,998.44
2022-11-25T06:44:20.446Z,998.49
2022-11-25T06:45:20.402Z,998.49
2022-11-25T06:46:24.767Z,998.43
2022-11-25T06:47:21.420Z,998.50
2022-11-25T06:48:20.411Z,998.52
2022-11-25T06:49:20.437Z,998.54
2022-11-25T06:50:20.409Z,998.45
2022-11-25T06:51:20.347Z,998.54
2022-11-25T06:52:20.500Z,998.57
2022-11-25T06:53:24.076Z,998.46
2022-11-25T06:54:21.348Z,998.44
2022-11-25T06:55:20.307Z,998.53
2022-11-25T06:56:20.339Z,998.48
2022-11-25T06:57:20.296Z,998.48
2022-11-25T06:58:35.436Z,998.51
2022-11-25T06:59:22.278Z,998.52
2022-11-25T07:00:20.267Z,998.56
2022-11-25T07:01:20.295Z,998.51
2022-11-25T07:02:20.320Z,998.50
2022-11-25T07:03:20.344Z,998.49
2022-11-25T07:04:20.277Z,998.54
2022-11-25T07:05:20.917Z,998.45
2022-11-25T07:06:20.260Z,998.49
2022-11-25T07:07:20.251Z,998.41
2022-11-25T07:08:20.217Z,998.43
2022-11-25T07:09:20.235Z,998.51
2022-11-25T07:10:20.230Z,998.48
2022-11-25T07:11:20.208Z,998.45
2022-11-25T07:12:20.197Z,998.48
2022-11-25T07:13:20.191Z,998.46
2022-11-25T07:14:20.167Z,998.53
2022-11-25T07:15:20.206Z,998.51
2022-11-25T07:16:20.236Z,998.49
2022-11-25T07:17:20.197Z,998.49
2022-11-25T07:18:20.212Z,998.54
2022-11-25T07:19:20.136Z,998.52
2022-11-25T07:20:20.143Z,998.48
2022-11-25T07:21:20.124Z,998.50
2022-11-25T07:22:20.115Z,998.54
2022-11-25T07:23:20.099Z,998.48
2022-11-25T07:24:20.083Z,998.49
2022-11-25T07:25:20.223Z,998.43
2022-11-25T07:26:20.091Z,998.53
2022-11-25T07:27:20.118Z,998.47
2022-11-25T07:28:20.065Z,998.53
2022-11-25T07:31:23.708Z,998.61
2022-11-25T07:32:22.569Z,998.63
2022-11-25T07:33:20.187Z,998.65
2022-11-25T07:34:20.181Z,998.67
2022-11-25T07:35:21.010Z,998.68
2022-11-25T07:36:20.061Z,998.76
2022-11-25T07:37:20.001Z,998.71
2022-11-25T07:38:19.996Z,998.75
2022-11-25T07:39:20.028Z,998.79
2022-11-25T07:40:19.971Z,998.80
2022-11-25T07:41:19.962Z,998.86
2022-11-25T07:42:19.966Z,998.86
2022-11-25T07:43:19.944Z,998.78
2022-11-25T07:44:19.972Z,998.81
2022-11-25T07:45:19.948Z,998.77
2022-11-25T07:46:26.276Z,998.81
2022-11-25T07:47:21.931Z,998.82
2022-11-25T07:48:20.922Z,998.85
2022-11-25T07:49:19.891Z,998.80
2022-11-25T07:50:19.887Z,998.79
2022-11-25T07:51:19.900Z,998.76
2022-11-25T07:52:19.905Z,998.79
2022-11-25T07:53:19.915Z,998.88
2022-11-25T07:54:19.866Z,998.87
2022-11-25T07:55:19.868Z,998.90
2022-11-25T07:56:19.851Z,998.87
2022-11-25T07:57:19.839Z,998.90
2022-11-25T07:58:19.852Z,998.91
2022-11-25T07:59:19.856Z,998.90
2022-11-25T08:00:19.838Z,998.87
2022-11-25T08:01:19.938Z,998.98
2022-11-25T08:02:19.856Z,998.89
2022-11-25T08:03:19.979Z,998.85
2022-11-25T08:04:21.023Z,998.85
2022-11-25T08:05:20.791Z,998.87
2022-11-25T08:06:19.822Z,998.85
2022-11-25T08:07:19.819Z,998.83
2022-11-25T08:08:19.772Z,998.84
2022-11-25T08:09:19.758Z,998.87
2022-11-25T08:10:19.755Z,998.90
2022-11-25T08:11:19.777Z,998.87
2022-11-25T08:12:19.767Z,998.91
2022-11-25T08:13:19.824Z,998.85
2022-11-25T08:14:19.731Z,998.87
2022-11-25T08:15:19.727Z,998.82
2022-11-25T08:16:19.761Z,998.82
2022-11-25T08:17:19.719Z,998.81
2022-11-25T08:18:19.697Z,998.88
2022-11-25T08:19:19.709Z,998.87
2022-11-25T08:20:19.688Z,998.89
2022-11-25T08:21:19.677Z,998.94
2022-11-25T08:22:19.701Z,998.90
2022-11-25T08:23:19.661Z,998.89
2022-11-25T08:24:19.696Z,998.86
2022-11-25T08:25:19.636Z,998.87
2022-11-25T08:26:19.650Z,998.86
2022-11-25T08:27:19.648Z,998.82
2022-11-25T08:28:19.615Z,998.83
2022-11-25T08:29:19.632Z,998.82
2022-11-25T08:30:19.622Z,998.80
2022-11-25T08:31:51.531Z,998.77
2022-11-25T08:32:19.592Z,998.76
2022-11-25T08:33:19.578Z,998.78
2022-11-25T08:34:19.575Z,998.82
2022-11-25T08:35:20.535Z,998.77
2022-11-25T08:36:19.577Z,998.84
2022-11-25T08:37:19.598Z,998.90
2022-11-25T08:38:20.389Z,998.91
2022-11-25T08:40:21.632Z,998.88
2022-11-25T08:41:19.528Z,998.86
2022-11-25T08:42:19.542Z,998.87
2022-11-25T08:43:22.789Z,998.88
2022-11-25T08:44:20.499Z,998.88
2022-11-25T08:45:19.518Z,998.88
2022-11-25T08:46:19.530Z,998.84
2022-11-25T08:47:19.483Z,998.90
2022-11-25T08:48:19.579Z,998.84
2022-11-25T08:49:20.026Z,998.87
2022-11-25T08:50:19.483Z,998.91
2022-11-25T08:51:20.034Z,998.92
2022-11-25T08:52:19.506Z,998.87
2022-11-25T08:53:19.462Z,998.95
2022-11-25T08:54:19.449Z,998.96
2022-11-25T08:55:19.451Z,998.86
2022-11-25T08:56:24.338Z,998.93
2022-11-25T08:57:21.442Z,998.97
2022-11-25T08:58:19.451Z,998.94
2022-11-25T08:59:19.378Z,998.95
2022-11-25T09:00:19.406Z,999.03
2022-11-25T09:01:20.440Z,998.96
2022-11-25T09:02:19.492Z,999.04
2022-11-25T09:03:19.412Z,999.04
2022-11-25T09:04:19.388Z,998.96
2022-11-25T09:05:19.378Z,998.96
2022-11-25T09:06:19.374Z,998.96
2022-11-25T09:07:19.381Z,998.98
2022-11-25T09:08:19.303Z,998.99
2022-11-25T09:09:19.296Z,998.99
2022-11-25T09:10:19.291Z,998.97
2022-11-25T09:11:19.338Z,999.00
2022-11-25T09:12:19.341Z,999.02
2022-11-25T09:13:19.365Z,999.05
2022-11-25T09:14:19.306Z,999.08
2022-11-25T09:15:19.258Z,999.04
2022-11-25T09:16:19.423Z,999.05
2022-11-25T09:17:19.292Z,999.07
2022-11-25T09:18:19.254Z,999.05
2022-11-25T09:19:19.269Z,999.07
2022-11-25T09:20:19.245Z,999.07
2022-11-25T09:21:19.245Z,999.21
2022-11-25T09:22:19.223Z,999.13
2022-11-25T09:23:19.218Z,999.11
2022-11-25T09:24:19.195Z,999.12
2022-11-25T09:25:19.233Z,999.09
2022-11-25T09:26:19.182Z,999.07
2022-11-25T09:27:19.219Z,999.05
2022-11-25T09:28:19.182Z,999.04
2022-11-25T09:29:19.160Z,999.04
2022-11-25T09:30:19.174Z,999.04
2022-11-25T09:31:19.206Z,999.05
2022-11-25T09:32:20.029Z,999.03
2022-11-25T09:33:19.169Z,999.03
2022-11-25T09:34:19.184Z,999.08
2022-11-25T09:35:19.100Z,999.06
2022-11-25T09:36:19.138Z,999.13
2022-11-25T09:37:19.122Z,999.14
2022-11-25T09:38:19.085Z,999.14
2022-11-25T09:39:19.093Z,999.10
2022-11-25T09:40:19.071Z,999.07
2022-11-25T09:41:19.069Z,999.02
2022-11-25T09:42:19.118Z,999.04
2022-11-25T09:43:19.043Z,999.08
2022-11-25T09:44:19.065Z,999.08
2022-11-25T09:45:19.027Z,999.07
2022-11-25T09:46:20.087Z,998.99
2022-11-25T09:47:19.011Z,999.03
2022-11-25T09:48:19.033Z,999.11
2022-11-25T09:49:19.034Z,999.09
2022-11-25T09:50:18.993Z,999.09
2022-11-25T09:51:19.006Z,999.08
2022-11-25T09:52:18.981Z,999.16
2022-11-25T09:53:18.997Z,999.16
2022-11-25T09:54:18.993Z,999.13
2022-11-25T09:55:18.977Z,999.10
2022-11-25T09:56:19.031Z,999.17
2022-11-25T09:57:18.947Z,999.13
2022-11-25T09:58:18.944Z,999.13
2022-11-25T09:59:18.949Z,999.13
2022-11-25T10:00:18.943Z,999.15
2022-11-25T10:01:19.608Z,999.17
2022-11-25T10:02:19.026Z,999.11
2022-11-25T10:03:19.023Z,999.13
2022-11-25T10:04:18.884Z,999.16
2022-11-25T10:05:18.878Z,999.15
2022-11-25T10:06:18.974Z,999.15
2022-11-25T10:07:18.907Z,999.19
2022-11-25T10:08:19.650Z,999.23
2022-11-25T10:09:18.860Z,999.18
2022-11-25T10:10:18.963Z,999.20
2022-11-25T10:11:18.840Z,999.20
2022-11-25T10:12:18.879Z,999.19
2022-11-25T10:13:19.779Z,999.24
2022-11-25T10:14:18.835Z,999.22
2022-11-25T10:15:18.794Z,999.22
2022-11-25T10:16:18.839Z,999.21
2022-11-25T10:17:18.800Z,999.28
2022-11-25T10:18:18.782Z,999.32
2022-11-25T10:19:18.768Z,999.28
2022-11-25T10:20:18.814Z,999.29
2022-11-25T10:21:18.749Z,999.29
2022-11-25T10:22:18.769Z,999.35
2022-11-25T10:23:22.261Z,999.35
2022-11-25T10:24:19.736Z,999.29
2022-11-25T10:25:18.711Z,999.31
2022-11-25T10:26:18.749Z,999.36
2022-11-25T10:27:18.739Z,999.35
2022-11-25T10:28:18.696Z,999.36
2022-11-25T10:29:18.704Z,999.34
2022-11-25T10:30:18.937Z,999.30
2022-11-25T10:31:18.777Z,999.28
2022-11-25T10:32:18.655Z,999.36
2022-11-25T10:33:18.658Z,999.32
2022-11-25T10:34:18.654Z,999.32
2022-11-25T10:35:18.652Z,999.31
2022-11-25T10:36:18.665Z,999.33
2022-11-25T10:37:18.619Z,999.32
2022-11-25T10:38:19.303Z,999.25
2022-11-25T10:39:19.811Z,999.39
2022-11-25T10:40:18.676Z,999.32
2022-11-25T10:41:18.591Z,999.29
2022-11-25T10:42:18.630Z,999.31
2022-11-25T10:43:18.594Z,999.34
2022-11-25T10:44:18.697Z,999.32
2022-11-25T10:45:18.591Z,999.36
2022-11-25T10:46:18.640Z,999.34
2022-11-25T10:47:18.638Z,999.34
2022-11-25T10:48:18.558Z,999.33
2022-11-25T10:49:18.579Z,999.40
2022-11-25T10:50:18.579Z,999.34
2022-11-25T10:51:18.550Z,999.37
2022-11-25T10:52:18.531Z,999.41
2022-11-25T10:53:18.534Z,999.44
2022-11-25T10:54:22.692Z,999.41
2022-11-25T10:55:19.562Z,999.43
2022-11-25T10:56:18.592Z,999.41
2022-11-25T10:57:19.509Z,999.44
2022-11-25T10:58:18.507Z,999.44
2022-11-25T10:59:18.494Z,999.47
2022-11-25T11:00:18.477Z,999.43
2022-11-25T11:01:18.535Z,999.47
2022-11-25T11:02:18.541Z,999.49
2022-11-25T11:03:18.467Z,999.49
2022-11-25T11:04:18.446Z,999.48
2022-11-25T11:05:18.487Z,999.45
2022-11-25T11:06:18.463Z,999.46
2022-11-25T11:07:18.501Z,999.47
2022-11-25T11:08:18.448Z,999.47
2022-11-25T11:10:04.964Z,999.45
2022-11-25T11:11:04.959Z,999.49
2022-11-25T11:12:04.953Z,999.51
2022-11-25T11:13:06.143Z,999.53
2022-11-25T11:14:06.747Z,999.52
2022-11-25T11:15:06.051Z,999.57
2022-11-25T11:16:06.100Z,999.56
2022-11-25T11:17:06.056Z,999.60
2022-11-25T11:18:06.045Z,999.53
2022-11-25T11:19:06.022Z,999.52
2022-11-25T11:20:06.031Z,999.52
2022-11-25T11:21:06.042Z,999.54
2022-11-25T11:22:05.990Z,999.56
2022-11-25T11:23:09.127Z,999.54
2022-11-25T11:24:06.998Z,999.57
2022-11-25T11:25:05.993Z,999.57
2022-11-25T11:26:06.065Z,999.63
2022-11-25T11:27:05.972Z,999.65
2022-11-25T11:28:06.004Z,999.61
2022-11-25T11:29:09.820Z,999.58
2022-11-25T11:30:07.970Z,999.61
2022-11-25T11:31:06.021Z,999.60
2022-11-25T11:32:05.952Z,999.63
2022-11-25T11:33:05.921Z,999.64
2022-11-25T11:34:05.920Z,999.55
2022-11-25T11:35:05.949Z,999.60
2022-11-25T11:36:05.883Z,999.62
2022-11-25T11:37:05.897Z,999.60
2022-11-25T11:38:05.882Z,999.63
2022-11-25T11:39:05.929Z,999.60
2022-11-25T11:40:05.901Z,999.56
2022-11-25T11:41:05.850Z,999.57
2022-11-25T11:42:05.894Z,999.54
2022-11-25T11:43:05.977Z,999.58
2022-11-25T11:44:06.729Z,999.55
2022-11-25T11:45:05.837Z,999.53
2022-11-25T11:46:05.830Z,999.58
2022-11-25T11:47:05.881Z,999.54
2022-11-25T11:48:05.821Z,999.46
2022-11-25T11:49:05.813Z,999.46
2022-11-25T11:50:05.854Z,999.53
2022-11-25T11:51:06.663Z,999.47
2022-11-25T11:52:05.756Z,999.48
2022-11-25T11:53:05.763Z,999.45
2022-11-25T11:54:05.829Z,999.46
2022-11-25T11:55:05.823Z,999.41
2022-11-25T11:56:33.520Z,999.47
2022-11-25T11:57:07.718Z,999.47
2022-11-25T11:58:05.708Z,999.55
2022-11-25T11:59:05.725Z,999.59
2022-11-25T12:00:05.762Z,999.53
2022-11-25T12:01:05.782Z,999.56
2022-11-25T12:02:05.798Z,999.58
2022-11-25T12:03:05.778Z,999.60
2022-11-25T12:04:05.789Z,999.64
2022-11-25T12:05:05.744Z,999.66
2022-11-25T12:06:05.695Z,999.71
2022-11-25T12:07:05.828Z,999.70
2022-11-25T12:08:05.655Z,999.66
2022-11-25T12:09:05.641Z,999.72
2022-11-25T12:10:05.626Z,999.74
2022-11-25T12:11:05.662Z,999.67
2022-11-25T12:12:05.618Z,999.65
2022-11-25T12:13:05.591Z,999.63
2022-11-25T12:14:05.593Z,999.60
2022-11-25T12:15:05.589Z,999.62
2022-11-25T12:16:05.654Z,999.66
2022-11-25T12:17:05.687Z,999.63
2022-11-25T12:18:05.614Z,999.66
2022-11-25T12:19:05.626Z,999.68
2022-11-25T12:20:05.525Z,999.61
2022-11-25T12:21:05.564Z,999.59
2022-11-25T12:22:05.685Z,999.64
2022-11-25T12:23:05.513Z,999.67
2022-11-25T12:24:05.552Z,999.64
2022-11-25T12:25:05.515Z,999.66
2022-11-25T12:26:05.502Z,999.69
2022-11-25T12:27:05.547Z,999.65
2022-11-25T12:28:05.501Z,999.66
2022-11-25T12:29:05.472Z,999.67
2022-11-25T12:30:05.467Z,999.65
2022-11-25T12:31:05.640Z,999.67
2022-11-25T12:32:06.532Z,999.70
2022-11-25T12:33:05.434Z,999.71
2022-11-25T12:34:05.483Z,999.73
2022-11-25T12:35:05.554Z,999.75
2022-11-25T12:36:05.430Z,999.79
2022-11-25T12:37:07.470Z,999.83
2022-11-25T12:38:06.401Z,999.80
2022-11-25T12:39:05.446Z,999.82
2022-11-25T12:40:08.172Z,999.81
2022-11-25T12:41:05.553Z,999.83
2022-11-25T12:42:06.047Z,999.85
2022-11-25T12:43:05.371Z,999.87
2022-11-25T12:44:05.378Z,999.85
2022-11-25T12:45:05.640Z,999.91
2022-11-25T12:46:05.388Z,999.98
2022-11-25T12:47:05.346Z,999.96
2022-11-25T12:48:05.543Z,999.97
2022-11-25T12:49:05.378Z,999.96